Marana, AZ

4:21 PM MST on May 28, 2015 (GMT -0700)
Ryan | | Change Station
CLOSE
Current Station
Airport
Location: Tucson,
Elevation: 2418 ft
Nearby Weather Stations

Elev 2418 ft 32.14 °N, 111.17 °W | Updated 36 minutes ago

Clear
Clear
99 °F
Feels Like 99 °F
N
8
Wind Variable Wind from WNW
Gusts 18 mph

Today
High -- | Low -- °F
--% Chance of Precip.
Yesterday
High -- | Low -- °F
Precip. -- in
5:20 AM 7:24 PM
Waxing Gibbous, 79% visible
Pressure 29.89 in
Visibility 10.0 miles
Clouds
Dew Point 30 °F
Humidity 9%
Rainfall 0.00 in
Snow Depth Not available.
UV Not available.
Pollen 4.20 out of 12
Air Quality Not available.
Flu Activity Local Activity
METAR KRYN 282245Z 30007G16KT 10SM 37/M01 A2989

More Conditions Fewer Conditions

Pressure 29.89 in
Visibility 10.0 miles
Clouds
Dew Point 30 °F
Humidity 9%
Rainfall 0.00 in
Snow Depth Not available.
UV Not available.
Pollen 4.20 out of 12
Air Quality Not available.
Flu Activity Local Activity
METAR KRYN 282245Z 30007G16KT 10SM 37/M01 A2989

More Conditions Fewer Conditions

10-Day Weather Forecast

Almanac

Astronomy

May. 28, 2015 Rise Set
Actual Time
Civil Twilight
Nautical Twilight
Astronomical Twilight
Moon
Length of Visible Light
Length of Day
Tomorrow will be .
, % of the Moon is Illuminated

Today's Extremes

State Highs State Lows

Community

WunderPhotos

Upload Photos

1,825,091 photos uploaded!

WunderBlogs® & News

Nearby

Air Quality

  Air Quality AQ Index Pollutant
Not available.

Snow Depth

Station Depth Elevation

Earthquake Activity

City Distance Mag. Time & Date
Minimum magnitude displayed is 2.5.

Coastal Water Temperatures

Place Temperature

Stations

Nearby Weather Stations

Station Location Temp. Windchill Dew Point Humidity Wind Precip. Elev Updated Type